Latest Coastal Weather Observations for Ceduna

IDS60701

Issued at 8:35 am CDT Thursday 23 October 2014 (issued every 10 minutes, with the page automatically refreshed every 10 minutes)

About coastal observations | Map of coastal stations | Coastal observations for SA | Marine services | Other Formats
Station Details ID: 018012 Name: CEDUNA AMO Lat: -32.13 Lon: 133.70 Height: 15.3 m
Data from the previous 72 hours. | See also: Recent months at Ceduna
Date/Time
CDT
Temp

°C
Wind Pressure Rain
since 9am
mm
Weather Cloud Vis
km
Sea
Height
m
Swell
Dir
 
Speed
knots
Gust
knots
hPa Trend Height
m
Period
s
Dir
23/08:30am 12.8 ESE 8 11 1018.1 - 0.0 - Cloudy 3 - - - -
23/08:16am 13.5 ESE 8 11 1017.8 - 0.0 - Cloudy 5 - - - -
23/08:00am 13.8 ESE 8 9 1017.9 - 0.0 - Cloudy 10 - - - -
23/07:30am 13.2 E 8 10 1017.9 - 0.0 - Cloudy 10 - - - -
23/07:13am 12.6 E 6 7 1018.1 - 0.0 - Partly cloudy 10 - - - -
23/07:00am 12.4 E 6 7 1018.1 - 0.0 - - 10 - - - -
23/06:51am 12.7 E 6 8 1018.1 - 0.0 - Partly cloudy 10 - - - -
23/06:30am 14.1 ESE 8 10 1018.0 - 0.0 - Cloudy 10 - - - -
23/06:00am 14.7 SE 7 10 1018.1 F 0.0 - Cloudy 10 - - - -
23/05:30am 14.8 SE 7 12 1018.0 - 0.0 - Cloudy 10 - - - -
23/05:00am 15.1 ESE 6 9 1018.1 - 0.0 - Cloudy 10 - - - -
23/04:30am 15.2 SE 8 11 1018.2 - 0.0 - Cloudy 10 - - - -
23/04:00am 15.3 SE 7 10 1018.4 - 0.0 - Cloudy 10 - - - -
23/03:30am 15.3 SE 8 11 1018.6 - 0.0 - Cloudy 10 - - - -
23/03:00am 15.4 SE 8 11 1018.9 F 0.0 - Cloudy 10 - - - -
23/02:30am 15.2 SE 9 12 1019.2 - 0.0 - Cloudy 10 - - - -
23/02:00am 15.1 SSE 9 12 1019.6 - 0.0 - Cloudy 10 - - - -
23/01:30am 15.3 SSE 8 11 1020.0 - 0.0 - Cloudy 10 - - - -
23/01:00am 15.5 S 8 11 1020.4 - 0.0 - Cloudy 10 - - - -
23/12:30am 15.3 SE 10 13 1020.3 - 0.0 - Cloudy 10 - - - -
 
Date/Time
CDT
Temp

°C
Wind Pressure Rain
since 9am
mm
Weather Cloud Vis
km
Sea
Height
m
Swell
Dir
 
Speed
knots
Gust
knots
hPa Trend Height
m
Period
s
Dir
22/11:30pm 15.7 S 8 12 1021.1 - 0.0 - Cloudy 10 - - - -
22/11:00pm 15.7 SSE 9 12 1020.9 - 0.0 - Cloudy 10 - - - -
22/10:30pm 15.8 S 10 13 1020.9 - 0.0 - Cloudy 10 - - - -
22/10:00pm 15.8 S 11 15 1021.2 - 0.0 - Cloudy 10 - - - -
22/09:30pm 16.1 S 10 15 1021.4 - 0.0 - Cloudy 10 - - - -
22/09:00pm 15.9 S 12 17 1021.4 F 0.0 - Mostly cloudy 10 - - - -
22/08:30pm 15.9 S 13 17 1021.0 - 0.0 - Cloudy 10 - - - -
22/08:00pm 15.9 S 13 18 1020.9 - 0.0 - Cloudy 10 - - - -
22/07:30pm 16.4 S 12 16 1020.8 - 0.0 - Cloudy 10 - - - -
22/07:00pm 16.5 S 13 18 1020.6 - 0.0 - Cloudy 10 - - - -
22/06:30pm 16.9 S 13 18 1020.5 - 0.0 - Cloudy 10 - - - -
22/06:00pm 17.1 S 14 18 1020.5 F 0.0 - Cloudy 10 - - - -
22/05:30pm 17.6 S 14 17 1020.4 - 0.0 - Cloudy 10 - - - -
22/05:00pm 18.4 S 14 19 1020.5 - 0.0 - Cloudy 10 - - - -
22/04:30pm 19.0 S 14 19 1020.5 - 0.0 - Cloudy 10 - - - -
22/04:00pm 18.8 S 15 19 1020.5 - 0.0 - Cloudy 10 - - - -
22/03:30pm 19.1 S 15 20 1020.7 - 0.0 - Partly cloudy 10 - - - -
22/03:00pm 18.8 S 14 19 1020.9 R 0.0 Fine Mostly cloudy 30 - - - -
22/02:30pm 18.9 SSW 14 20 1021.1 - 0.0 - Cloudy 10 - - - -
22/02:00pm 18.6 SSW 13 17 1021.4 - 0.0 - Mostly cloudy 10 - - - -
22/01:30pm 18.9 SSW 13 17 1021.6 - 0.0 - Mostly cloudy 10 - - - -
22/01:00pm 19.1 SSW 12 16 1021.9 - 0.0 - Mostly cloudy 10 - - - -
22/12:30pm 19.1 SSW 12 17 1021.9 - 0.0 - Mostly cloudy 10 - - - -
22/12:00pm 18.5 S 11 14 1022.1 R 0.0 Fine Mostly cloudy 30 - - - -
22/11:30am 19.1 S 11 15 1022.2 - 0.0 - Cloudy 10 - - - -
22/11:00am 19.3 S 12 16 1022.2 - 0.0 - Mostly cloudy 10 - - - -
22/10:30am 18.1 S 10 13 1022.3 - 0.0 - Mostly cloudy 10 - - - -
22/10:00am 17.7 S 9 12 1022.3 - 0.0 - Mostly cloudy 10 - - - -
22/09:30am 17.0 S 9 13 1021.9 - 0.0 - Mostly cloudy 10 - - - -
22/09:00am 16.8 S 9 13 1021.7 R 0.0 Fine Mostly cloudy 30 - - - -
22/08:30am 16.3 S 11 13 1021.3 - 0.0 - Mostly cloudy 10 - - - -
22/08:00am 15.9 S 10 13 1021.0 - 0.0 - Mostly cloudy 10 - - - -
22/07:30am 15.8 S 10 13 1020.6 - 0.0 - Mostly cloudy 10 - - - -
22/07:00am 15.4 S 10 14 1020.2 - 0.0 - Mostly cloudy 10 - - - -
22/06:30am 15.8 S 11 15 1020.1 - 0.0 - Mostly cloudy 10 - - - -
22/06:00am 15.9 S 10 13 1019.8 R 0.0 Fine Mostly cloudy 30 - - - -
22/05:30am 15.8 S 9 11 1019.6 - 0.0 - Partly cloudy 10 - - - -
22/05:00am 15.7 S 9 12 1019.3 - 0.0 - Cloudy 9 - - - -
22/04:44am 16.2 S 10 13 1019.2 - 0.0 - Partly cloudy 7 - - - -
22/04:30am 16.1 S 9 11 1019.0 - 0.0 - - 10 - - - -
22/04:00am 16.1 S 9 12 1019.0 - 0.0 - - 10 - - - -
22/03:30am 16.3 S 8 11 1019.2 - 0.0 - - 10 - - - -
22/03:00am 16.4 S 8 10 1019.3 F 0.0 - - 10 - - - -
22/02:30am 16.2 S 7 10 1019.5 - 0.0 - - 10 - - - -
22/02:00am 15.7 S 6 7 1019.7 - 0.0 - - 10 - - - -
22/01:30am 15.7 S 7 8 1020.1 - 0.0 - - 10 - - - -
22/01:00am 16.1 S 6 6 1020.8 - 0.0 - - 10 - - - -
22/12:30am 16.7 S 6 7 1020.9 - 0.0 - - 10 - - - -
22/12:00am 17.4 SSW 6 8 1020.9 R 0.0 - - 10 - - - -
 
Date/Time
CDT
Temp

°C
Wind Pressure Rain
since 9am
mm
Weather Cloud Vis
km
Sea
Height
m
Swell
Dir
 
Speed
knots
Gust
knots
hPa Trend Height
m
Period
s
Dir
21/11:30pm 17.6 SSW 8 10 1020.8 - 0.0 - - 10 - - - -
21/11:00pm 17.8 SSW 9 12 1020.7 - 0.0 - - 10 - - - -
21/10:30pm 18.1 SW 9 11 1020.8 - 0.0 - - 10 - - - -
21/10:00pm 18.1 SW 10 13 1020.4 - 0.0 - - 10 - - - -
21/09:30pm 18.4 WSW 8 10 1019.9 - 0.0 - - 10 - - - -
21/09:00pm 18.9 SW 10 13 1019.0 R 0.0 - - 10 - - - -
21/08:30pm 19.0 SW 8 10 1018.7 - 0.0 - - 10 - - - -
21/08:00pm 19.6 SW 4 7 1018.3 - 0.0 - - 10 - - - -
21/07:30pm 20.4 SSW 8 10 1017.7 - 0.0 - - 10 - - - -
21/07:00pm 21.2 SSW 11 15 1016.9 - 0.0 - - 10 - - - -
21/06:30pm 22.1 SSW 14 18 1016.4 - 0.0 - - 10 - - - -
21/06:00pm 23.1 SW 13 18 1015.8 R 0.0 - - 10 - - - -
21/05:30pm 23.1 SSW 15 16 1015.4 - 0.0 - - 10 - - - -
21/05:00pm 24.1 WSW 12 16 1015.0 - 0.0 - - 10 - - - -
21/04:30pm 25.2 W 11 14 1014.8 - 0.0 - - 10 - - - -
21/04:00pm 26.5 SW 15 20 1014.4 - 0.0 - - 10 - - - -
21/03:30pm 24.9 SW 19 26 1014.4 - 0.0 - - 10 - - - -
21/03:08pm 27.1 SW 15 29 1013.9 - 0.0 - - 10 - - - -
21/03:04pm 29.6 WSW 13 18 1014.1 - 0.0 - - 10 - - - -
21/03:00pm 36.1 N 12 18 1013.6 F 0.0 Fine Partly cloudy 30 - - - -
21/02:30pm 34.6 N 18 24 1013.7 - 0.0 - - 10 - - - -
21/02:00pm 35.1 N 18 28 1013.9 - 0.0 - Partly cloudy 10 - - - -
21/01:41pm 34.6 N 19 30 1014.1 - 0.0 - - 10 - - - -
21/01:30pm 35.0 N 14 20 1014.1 - 0.0 - - 10 - - - -
21/01:00pm 34.4 NNE 13 18 1014.7 - 0.0 - - 10 - - - -
21/12:30pm 32.1 NNE 11 14 1015.1 - 0.0 - - 10 - - - -
21/12:00pm 31.9 N 15 23 1015.7 F 0.0 Fine Mostly cloudy 30 - - - -
21/11:30am 32.5 NNE 14 20 1015.7 - 0.0 - - 10 - - - -
21/11:00am 30.8 NE 11 15 1015.9 - 0.0 - - 10 - - - -
21/10:30am 29.4 NE 10 12 1016.5 - 0.0 - - 10 - - - -
21/10:00am 26.6 ENE 8 11 1016.6 - 0.0 - - 10 - - - -
21/09:30am 22.2 ENE 6 7 1016.9 - 0.0 - - 10 - - - -
21/09:00am 20.0 NNW 4 5 1017.0 R 0.0 - Mostly cloudy 10 - - - -
21/08:30am 17.7 NNE 3 5 1016.1 - 0.0 - - 10 - - - -
21/08:00am 16.1 N 4 6 1016.2 - 0.0 - - 10 - - - -
21/07:30am 15.6 NNE 4 6 1015.5 - 0.0 - - 10 - - - -
21/07:00am 14.4 NE 3 6 1015.0 - 0.0 - - 10 - - - -
21/06:30am 13.2 NNE 1 5 1014.9 - 0.0 - - 10 - - - -
21/06:00am 14.5 ENE 1 4 1014.5 R 0.0 Fine Mostly clear 30 - - - -
21/05:30am 16.9 SSW 5 5 1014.3 - 0.0 - - 10 - - - -
21/05:00am 16.4 WSW 13 17 1014.0 - 0.0 - - 10 - - - -
21/04:30am 12.2 N 3 4 1012.8 - 0.0 - - 10 - - - -
21/04:00am 12.0 N 3 4 1013.0 - 0.0 - - 10 - - - -
21/03:30am 12.0 N 3 4 1013.2 - 0.0 - - 10 - - - -
21/03:00am 13.8 N 3 4 1013.3 R 0.0 - - 10 - - - -
21/02:30am 14.8 N 6 7 1013.4 - 0.0 - - 10 - - - -
21/02:00am 14.9 NNW 5 6 1013.4 - 0.0 - - 10 - - - -
21/01:30am 16.3 W 4 7 1013.5 - 0.0 - - 10 - - - -
21/01:00am 15.4 NNE 4 6 1013.5 - 0.0 - - 10 - - - -
21/12:30am 16.0 NE 7 9 1013.6 - 0.0 - - 10 - - - -
21/12:00am 16.6 NNE 7 8 1013.8 F 0.0 - - 10 - - - -
 
Date/Time
CDT
Temp

°C
Wind Pressure Rain
since 9am
mm
Weather Cloud Vis
km
Sea
Height
m
Swell
Dir
 
Speed
knots
Gust
knots
hPa Trend Height
m
Period
s
Dir
20/11:30pm 16.6 N 5 6 1013.8 - 0.0 - - 10 - - - -
20/11:00pm 17.4 N 6 7 1013.9 - 0.0 - - 10 - - - -
20/10:30pm 19.2 N 5 6 1014.0 - 0.0 - - 10 - - - -
20/10:00pm 21.9 WSW 5 7 1014.3 - 0.0 - - 10 - - - -
20/09:30pm 22.9 SW 6 10 1014.3 - 0.0 - - 10 - - - -
20/09:00pm 22.3 WSW 8 12 1014.5 R 0.0 - Cloudy 10 - - - -
20/08:30pm 24.1 S 9 11 1013.9 - 0.0 - - 10 - - - -
20/08:00pm 25.4 SSW 12 14 1013.8 - 0.0 - - 10 - - - -
20/07:30pm 26.9 SSW 10 13 1013.5 - 0.0 - - 10 - - - -
20/07:00pm 29.2 SW 16 21 1013.3 - 0.0 - - 10 - - - -
20/06:30pm 28.8 WSW 19 26 1013.1 - 0.0 - - 10 - - - -
20/06:18pm 33.2 WSW 17 21 1012.4 - 0.0 - - 10 - - - -
20/06:00pm 38.3 WSW 6 10 1012.1 F 0.0 - - 10 - - - -
20/05:30pm 38.4 S 8 11 1012.2 - 0.0 - - 10 - - - -
20/05:00pm 37.7 S 5 11 1012.4 - 0.0 - - 10 - - - -
20/04:30pm 40.1 NW 10 16 1012.6 - 0.0 - - 10 - - - -
20/04:00pm 39.8 NW 7 13 1013.0 - 0.0 - - 10 - - - -
20/03:30pm 39.5 NNE 9 15 1013.3 - 0.0 - - 10 - - - -
20/03:00pm 39.1 NNE 7 10 1013.9 F 0.0 Fine Mostly clear 30 - - - -
20/02:30pm 39.0 N 14 23 1014.4 - 0.0 - - 10 - - - -
20/02:00pm 39.1 N 11 17 1014.9 - 0.0 - - 10 - - - -
20/01:30pm 38.3 N 13 20 1015.2 - 0.0 - - 10 - - - -
20/01:00pm 37.9 NNE 11 17 1015.5 - 0.0 - - 10 - - - -
20/12:30pm 37.2 N 17 22 1016.1 - 0.0 - - 10 - - - -
20/12:00pm 36.2 NNE 17 23 1016.6 F 0.0 Fine Mostly clear 30 - - - -
20/11:30am 35.6 NNE 16 22 1017.1 - 0.0 - - 10 - - - -
20/11:00am 34.7 NNE 17 23 1017.6 - 0.0 - - 10 - - - -
20/10:30am 34.1 NNE 16 22 1018.0 - 0.0 - - 10 - - - -
20/10:00am 32.5 NNE 15 21 1018.2 - 0.0 - - 10 - - - -
20/09:30am 30.6 NNE 14 19 1018.1 - 0.0 - - 10 - - - -
20/09:00am 26.5 NE 13 15 1018.0 R 0.0 Fine Partly cloudy 30 - - - -

Other Formats:

Comma delimited format used in spreadsheet applications
http://www.bom.gov.au/fwo/IDS60701/IDS60701.94653.axf

JavaScript Object Notation format (JSON) in row-major order
http://www.bom.gov.au/fwo/IDS60701/IDS60701.94653.json